Time;durP1;ratioP1;P1;durP2;ratioP2;P2;SDS_P1;SDS_P2;PMS_P1;PMS_P2;Temp;Humidity;BMP_temperature;BMP_pressure;BME280_temperature;BME280_humidity;BME280_pressure;Samples;Min_cycle;Max_cycle;Signal;HPM_P1;HPM_P2
2023/07/16 00:01:35;;;;;;;2.90;2.13;;;20.10;99.90;;;;;;5087888;28;20231;-71
2023/07/16 00:04:01;;;;;;;2.87;2.10;;;20.00;99.90;;;;;;5087237;28;20768;-74
2023/07/16 00:06:26;;;;;;;4.00;2.00;;;20.00;99.90;;;;;;5087672;28;20185;-74
2023/07/16 00:08:52;;;;;;;4.73;3.03;;;20.00;99.90;;;;;;5105669;28;20219;-74
2023/07/16 00:11:18;;;;;;;4.70;2.20;;;20.00;99.90;;;;;;5067326;28;20213;-70
2023/07/16 00:13:46;;;;;;;3.90;2.00;;;20.00;99.90;;;;;;5084668;28;20647;-73
2023/07/16 00:16:13;;;;;;;4.13;2.40;;;20.00;99.90;;;;;;5107812;28;20573;-74
2023/07/16 00:18:39;;;;;;;2.47;1.70;;;20.00;99.90;;;;;;5104915;28;20410;-73
2023/07/16 00:21:04;;;;;;;2.30;1.67;;;19.90;99.90;;;;;;5092178;28;20855;-73
2023/07/16 00:23:30;;;;;;;3.97;1.60;;;19.80;99.90;;;;;;5077735;28;20192;-75
2023/07/16 00:25:56;;;;;;;2.50;1.60;;;19.80;99.90;;;;;;5082270;28;20216;-72
2023/07/16 00:28:21;;;;;;;2.47;2.00;;;19.70;99.90;;;;;;5090845;28;20263;-72
2023/07/16 00:30:48;;;;;;;3.10;2.37;;;19.70;99.90;;;;;;5091674;28;20212;-72
2023/07/16 00:33:13;;;;;;;2.97;2.17;;;19.70;99.90;;;;;;5090746;28;20263;-71
2023/07/16 00:35:39;;;;;;;2.90;1.63;;;19.70;99.90;;;;;;5107734;28;20422;-72
2023/07/16 00:38:05;;;;;;;2.10;1.60;;;19.70;99.90;;;;;;5072963;28;20196;-75
2023/07/16 00:40:30;;;;;;;2.30;1.67;;;19.70;99.90;;;;;;5069625;28;20202;-72
2023/07/16 00:42:56;;;;;;;1.90;1.57;;;19.70;99.90;;;;;;5067154;28;20422;-74
2023/07/16 00:45:22;;;;;;;1.93;1.50;;;19.70;99.90;;;;;;5090802;28;20198;-72
2023/07/16 00:47:47;;;;;;;3.23;1.70;;;19.60;99.90;;;;;;5106922;28;20252;-73
2023/07/16 00:50:13;;;;;;;2.63;1.77;;;19.60;99.90;;;;;;5089807;28;20615;-74
2023/07/16 00:52:40;;;;;;;3.60;2.53;;;19.50;99.90;;;;;;5105734;28;20204;-71
2023/07/16 00:55:06;;;;;;;2.60;2.23;;;19.40;99.90;;;;;;5102764;28;20439;-73
2023/07/16 00:57:33;;;;;;;3.57;2.70;;;19.40;99.90;;;;;;5071068;28;20789;-73
2023/07/16 00:59:58;;;;;;;1.80;1.60;;;19.30;99.90;;;;;;5071896;28;20772;-72
2023/07/16 01:02:24;;;;;;;3.10;2.30;;;19.30;99.90;;;;;;5088570;28;20410;-72
2023/07/16 01:04:51;;;;;;;5.53;2.50;;;19.20;99.90;;;;;;5106226;28;20227;-74
2023/07/16 01:07:20;;;;;;;2.50;2.00;;;19.10;99.90;;;;;;5090341;28;20426;-72
2023/07/16 01:09:46;;;;;;;5.13;2.73;;;19.00;99.90;;;;;;5077964;28;20448;-72
2023/07/16 01:12:13;;;;;;;4.03;2.47;;;19.00;99.90;;;;;;5083015;28;20512;-72
2023/07/16 01:14:40;;;;;;;3.40;1.87;;;18.90;99.90;;;;;;5107316;28;20222;-72
2023/07/16 01:17:06;;;;;;;3.93;2.73;;;18.90;99.90;;;;;;5086516;28;20728;-72
2023/07/16 01:19:34;;;;;;;4.87;3.20;;;18.90;99.90;;;;;;5106034;28;20448;-74
2023/07/16 01:22:44;;;;;;;4.30;2.73;;;18.90;99.90;;;;;;5107880;28;20429;-72
2023/07/16 01:25:47;;;;;;;3.03;1.93;;;18.80;99.90;;;;;;5073912;28;20428;-72
2023/07/16 01:28:49;;;;;;;2.47;2.20;;;18.70;99.90;;;;;;5084485;28;20440;-72
2023/07/16 01:31:17;;;;;;;2.10;1.90;;;18.70;99.90;;;;;;5061984;28;20470;-72
2023/07/16 01:33:44;;;;;;;3.77;2.23;;;18.70;99.90;;;;;;5104645;28;20841;-70
2023/07/16 01:36:13;;;;;;;2.97;1.90;;;18.60;99.90;;;;;;5105352;28;20414;-72
2023/07/16 01:38:39;;;;;;;3.03;2.50;;;18.50;99.90;;;;;;5106511;28;20414;-73
2023/07/16 01:41:04;;;;;;;3.53;2.00;;;18.60;99.90;;;;;;5071902;28;20455;-72
2023/07/16 01:43:30;;;;;;;2.63;2.20;;;18.60;99.90;;;;;;5100708;28;20172;-72
2023/07/16 01:45:55;;;;;;;5.10;2.57;;;18.60;99.90;;;;;;5086643;28;20183;-72
2023/07/16 01:48:33;;;;;;;4.43;2.60;;;18.60;99.90;;;;;;5085743;28;20196;-72
2023/07/16 01:51:00;;;;;;;3.63;2.10;;;18.60;99.90;;;;;;5103055;28;20216;-72
2023/07/16 01:53:26;;;;;;;2.33;1.63;;;18.60;99.90;;;;;;5090227;28;20488;-72
2023/07/16 01:55:52;;;;;;;4.07;2.30;;;18.60;99.90;;;;;;5055020;28;20844;-71
2023/07/16 01:58:17;;;;;;;3.67;2.70;;;18.60;99.90;;;;;;5086369;28;20194;-70
2023/07/16 02:00:43;;;;;;;3.50;2.17;;;18.50;99.90;;;;;;5087025;28;20187;-71
2023/07/16 02:03:09;;;;;;;2.57;2.10;;;18.50;99.90;;;;;;5093324;28;20180;-73
2023/07/16 02:05:35;;;;;;;3.43;2.33;;;18.50;99.90;;;;;;5062137;28;20216;-71
2023/07/16 02:08:01;;;;;;;2.63;2.17;;;18.40;99.90;;;;;;5075913;28;20425;-71
2023/07/16 02:10:26;;;;;;;5.33;2.27;;;18.40;99.90;;;;;;5105758;28;20204;-71
2023/07/16 02:12:52;;;;;;;5.67;2.00;;;18.30;99.90;;;;;;5092215;28;20203;-73
2023/07/16 02:15:19;;;;;;;3.73;2.40;;;18.30;99.90;;;;;;5100374;28;20563;-74
2023/07/16 02:17:45;;;;;;;3.10;2.20;;;18.30;99.90;;;;;;5088852;28;20180;-73
2023/07/16 02:20:11;;;;;;;2.90;2.03;;;18.20;99.90;;;;;;5070689;28;20519;-72
2023/07/16 02:22:38;;;;;;;3.50;2.13;;;18.20;99.90;;;;;;5087900;28;20402;-71
2023/07/16 02:25:04;;;;;;;4.73;2.23;;;18.10;99.90;;;;;;5104339;28;20482;-72
2023/07/16 02:27:30;;;;;;;3.83;1.90;;;18.10;99.90;;;;;;5103797;28;20190;-73
2023/07/16 02:29:56;;;;;;;3.20;1.60;;;18.00;99.90;;;;;;5104935;28;20453;-70
2023/07/16 02:32:22;;;;;;;3.63;1.60;;;18.00;99.90;;;;;;5085158;28;20237;-71
2023/07/16 02:34:47;;;;;;;3.53;1.90;;;17.90;99.90;;;;;;5086497;28;20191;-73
2023/07/16 02:37:13;;;;;;;3.60;2.00;;;17.90;99.90;;;;;;5084981;28;20536;-70
2023/07/16 02:39:41;;;;;;;4.00;1.90;;;17.90;99.90;;;;;;5095401;28;20243;-72
2023/07/16 02:42:08;;;;;;;2.47;1.70;;;17.90;99.90;;;;;;5063766;28;20259;-71
2023/07/16 02:44:38;;;;;;;3.30;1.57;;;17.90;99.90;;;;;;5103997;28;20855;-71
2023/07/16 02:47:04;;;;;;;4.60;2.13;;;17.80;99.90;;;;;;5087262;28;20430;-71
2023/07/16 02:49:29;;;;;;;2.57;1.63;;;17.80;99.90;;;;;;5068914;28;20676;-71
2023/07/16 02:51:55;;;;;;;3.47;2.13;;;17.80;99.90;;;;;;5087185;28;20454;-71
2023/07/16 02:54:22;;;;;;;2.93;1.60;;;17.80;99.90;;;;;;5084106;28;20191;-72
2023/07/16 02:56:47;;;;;;;2.53;1.40;;;17.70;99.90;;;;;;5026972;28;20173;-71
2023/07/16 02:59:13;;;;;;;2.10;1.50;;;17.70;99.90;;;;;;5068701;28;20441;-72
2023/07/16 03:01:38;;;;;;;3.87;1.50;;;17.60;99.90;;;;;;5084789;28;20205;-72
2023/07/16 03:04:04;;;;;;;3.83;1.63;;;17.60;99.90;;;;;;5068464;28;20256;-74
2023/07/16 03:06:29;;;;;;;2.33;1.33;;;17.60;99.90;;;;;;5068188;28;20199;-71
2023/07/16 03:08:55;;;;;;;4.13;1.43;;;17.60;99.90;;;;;;5083680;28;20187;-71
2023/07/16 03:11:22;;;;;;;2.50;1.40;;;17.50;99.90;;;;;;5050046;28;20216;-71
2023/07/16 03:13:47;;;;;;;2.60;1.57;;;17.50;99.90;;;;;;5061927;28;20428;-71
2023/07/16 03:16:13;;;;;;;2.20;1.50;;;17.40;99.90;;;;;;5101989;28;20180;-71
2023/07/16 03:18:38;;;;;;;2.80;1.70;;;17.40;99.90;;;;;;5083547;28;20346;-72
2023/07/16 03:21:04;;;;;;;3.93;1.83;;;17.40;99.90;;;;;;5101284;28;20207;-69
2023/07/16 03:23:30;;;;;;;3.00;1.73;;;17.40;99.90;;;;;;5094752;28;20276;-69
2023/07/16 03:25:55;;;;;;;1.87;1.70;;;17.30;99.90;;;;;;5048279;28;20209;-72
2023/07/16 03:28:21;;;;;;;2.00;1.40;;;17.30;99.90;;;;;;5076507;28;20297;-71
2023/07/16 03:30:50;;;;;;;3.53;2.23;;;17.20;99.90;;;;;;5094543;28;20219;-72
2023/07/16 03:33:16;;;;;;;3.10;1.73;;;17.20;99.90;;;;;;5095489;28;20210;-71
2023/07/16 03:35:47;;;;;;;2.73;2.00;;;17.20;99.90;;;;;;5077238;28;20432;-71
2023/07/16 03:38:13;;;;;;;3.33;1.90;;;17.20;99.90;;;;;;5077355;28;20504;-71
2023/07/16 03:40:39;;;;;;;2.10;1.30;;;17.10;99.90;;;;;;5055173;28;20550;-69
2023/07/16 03:43:06;;;;;;;3.80;1.90;;;17.10;99.90;;;;;;5076387;28;20847;-70
2023/07/16 03:45:33;;;;;;;3.10;1.77;;;17.10;99.90;;;;;;5077552;28;20752;-70
2023/07/16 03:47:58;;;;;;;3.30;1.50;;;17.10;99.90;;;;;;5077449;28;20407;-70
2023/07/16 03:50:25;;;;;;;2.43;1.47;;;17.10;99.90;;;;;;5076656;28;20604;-70
2023/07/16 03:52:50;;;;;;;1.70;1.23;;;17.10;99.90;;;;;;5094916;28;20542;-71
2023/07/16 03:55:17;;;;;;;2.70;1.40;;;17.10;99.90;;;;;;5085192;28;20217;-70
2023/07/16 03:57:43;;;;;;;1.80;1.40;;;17.10;99.90;;;;;;5045520;28;20193;-71
2023/07/16 04:00:09;;;;;;;2.40;1.87;;;17.10;99.90;;;;;;5061025;28;20753;-71
2023/07/16 04:02:41;;;;;;;3.87;1.73;;;17.10;99.90;;;;;;5101099;28;20153;-71
2023/07/16 04:05:11;;;;;;;2.53;1.23;;;17.10;99.90;;;;;;5099011;28;20543;-71
2023/07/16 04:07:36;;;;;;;3.53;1.87;;;17.10;99.90;;;;;;5098950;28;20501;-71
2023/07/16 04:10:02;;;;;;;2.30;1.40;;;17.20;99.90;;;;;;5066876;28;20227;-71
2023/07/16 04:12:28;;;;;;;3.50;2.13;;;17.20;99.90;;;;;;5099021;28;20212;-71
2023/07/16 04:15:00;;;;;;;6.83;2.07;;;17.30;99.90;;;;;;5099393;28;20559;-70
2023/07/16 04:17:26;;;;;;;3.80;2.20;;;17.30;99.90;;;;;;5081606;28;20239;-71
2023/07/16 04:19:51;;;;;;;2.40;1.80;;;17.40;99.90;;;;;;5098777;28;20476;-71
2023/07/16 04:22:17;;;;;;;4.50;2.20;;;17.40;99.90;;;;;;5098565;28;20470;-71
2023/07/16 04:24:43;;;;;;;5.07;2.23;;;17.50;99.90;;;;;;5091700;28;20193;-70
2023/07/16 04:27:08;;;;;;;3.70;2.00;;;17.60;99.90;;;;;;5084068;28;20193;-71
2023/07/16 04:29:34;;;;;;;3.50;2.40;;;17.60;99.90;;;;;;5098162;28;20623;-71
2023/07/16 04:31:59;;;;;;;3.17;1.87;;;17.70;99.90;;;;;;5099627;28;20471;-70
2023/07/16 04:34:25;;;;;;;2.10;1.70;;;17.70;99.90;;;;;;5099347;28;20193;-72
2023/07/16 04:36:50;;;;;;;3.87;2.17;;;17.80;99.90;;;;;;5098780;28;20182;-70
2023/07/16 04:39:16;;;;;;;4.67;2.67;;;17.90;99.90;;;;;;5097064;28;20228;-70
2023/07/16 04:41:42;;;;;;;6.67;2.60;;;18.00;99.90;;;;;;5058146;28;20272;-71
2023/07/16 04:44:07;;;;;;;2.87;1.70;;;18.00;99.90;;;;;;5084978;28;20172;-70
2023/07/16 04:46:33;;;;;;;4.37;2.17;;;18.10;99.90;;;;;;5099396;28;20577;-70
2023/07/16 04:48:59;;;;;;;3.50;1.83;;;18.10;99.90;;;;;;5098782;28;20191;-71
2023/07/16 04:51:25;;;;;;;6.93;2.47;;;18.20;99.90;;;;;;5098456;28;20687;-70
2023/07/16 04:53:50;;;;;;;3.00;1.90;;;18.30;99.90;;;;;;5099191;28;20471;-71
2023/07/16 04:56:16;;;;;;;4.93;2.80;;;18.30;99.90;;;;;;5098977;28;20203;-70
2023/07/16 04:58:42;;;;;;;4.43;2.67;;;18.40;99.90;;;;;;5098814;28;20193;-70
2023/07/16 05:01:08;;;;;;;6.60;2.00;;;18.90;99.90;;;;;;5098355;28;20215;-70
2023/07/16 05:03:34;;;;;;;4.77;2.43;;;19.50;99.90;;;;;;5098577;28;20504;-71
2023/07/16 05:06:00;;;;;;;5.93;2.67;;;20.10;95.50;;;;;;5080202;28;20438;-71
2023/07/16 05:08:26;;;;;;;3.90;2.13;;;20.60;91.10;;;;;;5098380;28;20277;-71
2023/07/16 05:10:52;;;;;;;6.37;2.60;;;21.10;86.70;;;;;;5070201;28;20452;-71
2023/07/16 05:13:17;;;;;;;3.80;2.90;;;21.50;81.00;;;;;;5096779;28;20180;-71
2023/07/16 05:15:46;;;;;;;3.77;2.07;;;21.80;76.10;;;;;;5098467;28;20211;-71
2023/07/16 05:18:11;;;;;;;6.13;3.17;;;22.10;73.00;;;;;;5098968;28;20450;-71
2023/07/16 05:20:37;;;;;;;3.10;2.30;;;22.40;68.40;;;;;;5097371;28;20693;-69
2023/07/16 05:23:03;;;;;;;5.87;2.63;;;22.70;66.70;;;;;;5097670;28;20169;-71
2023/07/16 05:25:28;;;;;;;3.57;2.30;;;22.90;64.70;;;;;;5085941;28;20471;-71
2023/07/16 05:27:55;;;;;;;6.00;3.00;;;23.20;63.40;;;;;;5098206;28;20229;-70
2023/07/16 05:30:21;;;;;;;4.13;2.60;;;23.50;61.00;;;;;;5098066;28;20211;-71
2023/07/16 05:32:46;;;;;;;3.70;2.40;;;23.80;59.70;;;;;;5098708;28;20462;-71
2023/07/16 05:35:12;;;;;;;5.97;2.57;;;24.00;58.50;;;;;;5098681;28;20192;-72
2023/07/16 05:37:37;;;;;;;4.23;2.33;;;24.20;57.90;;;;;;5098297;28;20207;-71
2023/07/16 05:40:03;;;;;;;9.83;2.93;;;24.40;56.20;;;;;;5082731;28;20201;-71
2023/07/16 05:42:29;;;;;;;5.40;2.50;;;24.50;55.40;;;;;;5057100;28;20185;-71
2023/07/16 05:44:55;;;;;;;6.40;3.23;;;24.60;55.10;;;;;;5062167;28;20404;-70
2023/07/16 05:47:20;;;;;;;3.80;2.53;;;24.60;54.50;;;;;;5097819;28;20503;-72
2023/07/16 05:49:46;;;;;;;3.23;2.20;;;24.60;54.10;;;;;;5097435;28;20208;-71
2023/07/16 05:52:12;;;;;;;4.80;2.70;;;24.70;54.00;;;;;;5097213;28;20630;-70
2023/07/16 05:54:37;;;;;;;4.90;2.33;;;24.90;53.10;;;;;;5091422;28;20528;-73
2023/07/16 05:57:03;;;;;;;10.20;3.10;;;24.90;52.20;;;;;;5081425;28;20230;-72
2023/07/16 05:59:29;;;;;;;5.00;2.70;;;24.90;51.20;;;;;;5079227;28;20219;-73
2023/07/16 06:01:57;;;;;;;3.30;3.00;;;24.90;51.30;;;;;;5097228;28;20261;-71
2023/07/16 06:04:23;;;;;;;7.17;3.80;;;24.90;51.10;;;;;;5096809;28;20231;-72
2023/07/16 06:06:48;;;;;;;3.23;2.20;;;24.90;50.10;;;;;;5097725;28;20702;-71
2023/07/16 06:09:14;;;;;;;4.37;3.13;;;25.00;50.30;;;;;;5079105;28;20207;-72
2023/07/16 06:11:39;;;;;;;4.80;2.90;;;25.10;50.30;;;;;;5091421;28;20291;-72
2023/07/16 06:14:05;;;;;;;6.80;3.47;;;25.20;49.60;;;;;;5097704;28;20516;-72
2023/07/16 06:16:31;;;;;;;7.57;3.50;;;25.40;48.50;;;;;;5096653;28;20291;-72
2023/07/16 06:18:56;;;;;;;4.30;3.57;;;25.30;48.30;;;;;;5096782;28;20459;-72
2023/07/16 06:21:22;;;;;;;3.60;3.10;;;25.40;47.50;;;;;;5061536;28;20200;-71
2023/07/16 06:23:47;;;;;;;6.20;3.20;;;25.40;48.00;;;;;;5096697;28;20173;-72
2023/07/16 06:26:13;;;;;;;6.80;3.83;;;25.40;47.80;;;;;;5083564;28;20196;-72
2023/07/16 06:28:38;;;;;;;3.60;2.43;;;25.30;47.80;;;;;;5096197;28;20257;-71
2023/07/16 06:31:04;;;;;;;4.53;2.80;;;25.40;47.70;;;;;;5096475;28;20208;-71
2023/07/16 06:33:29;;;;;;;6.20;3.50;;;25.50;47.60;;;;;;5096377;28;20160;-71
2023/07/16 06:35:55;;;;;;;6.83;3.60;;;25.40;46.80;;;;;;5096673;28;20189;-70
2023/07/16 06:38:20;;;;;;;5.30;3.37;;;25.30;46.40;;;;;;5096651;28;20198;-71
2023/07/16 06:40:53;;;;;;;4.77;3.00;;;25.40;46.80;;;;;;5069883;28;20271;-70
2023/07/16 06:43:18;;;;;;;4.50;3.90;;;25.40;46.60;;;;;;5094783;28;20192;-71
2023/07/16 06:45:44;;;;;;;6.90;4.13;;;25.30;47.20;;;;;;5096378;28;20459;-71
2023/07/16 06:48:10;;;;;;;4.57;3.27;;;25.10;46.80;;;;;;5096834;28;20591;-71
2023/07/16 06:50:35;;;;;;;6.30;3.60;;;25.10;46.90;;;;;;5095614;28;20212;-71
2023/07/16 06:53:01;;;;;;;6.83;3.43;;;25.00;47.00;;;;;;5096329;28;20298;-72
2023/07/16 06:55:26;;;;;;;6.70;3.43;;;24.90;46.20;;;;;;5075734;28;20194;-72
2023/07/16 06:57:52;;;;;;;6.73;4.00;;;24.80;45.90;;;;;;5065385;28;20183;-71
2023/07/16 07:00:18;;;;;;;8.47;4.37;;;24.80;45.70;;;;;;5096123;28;20212;-71
2023/07/16 07:02:43;;;;;;;5.13;3.33;;;24.70;45.80;;;;;;5100270;28;20176;-71
2023/07/16 07:05:09;;;;;;;5.10;3.80;;;24.70;45.70;;;;;;5102121;28;20219;-72
2023/07/16 07:07:35;;;;;;;6.30;4.23;;;24.80;45.50;;;;;;5069890;28;20180;-72
2023/07/16 07:10:00;;;;;;;4.50;3.80;;;24.80;45.20;;;;;;5089511;28;20271;-73
2023/07/16 07:12:26;;;;;;;7.10;3.87;;;24.70;45.50;;;;;;5064259;28;20197;-71
2023/07/16 07:14:52;;;;;;;7.90;4.80;;;24.60;45.70;;;;;;5076937;28;20228;-71
2023/07/16 07:17:17;;;;;;;6.10;3.87;;;24.40;45.50;;;;;;5085724;28;20176;-72
2023/07/16 07:19:43;;;;;;;4.80;4.10;;;24.30;46.00;;;;;;5087717;28;20534;-74
2023/07/16 07:22:09;;;;;;;4.27;3.20;;;24.20;46.10;;;;;;5105932;28;20275;-72
2023/07/16 07:24:35;;;;;;;5.87;4.40;;;24.30;46.20;;;;;;5079117;28;20801;-75
2023/07/16 07:27:00;;;;;;;4.43;3.43;;;24.30;45.30;;;;;;5061318;28;20205;-72
2023/07/16 07:29:26;;;;;;;5.70;4.10;;;24.40;45.20;;;;;;5065949;28;20204;-72
2023/07/16 07:31:52;;;;;;;6.13;4.00;;;24.10;45.30;;;;;;5085727;28;20224;-71
2023/07/16 07:34:18;;;;;;;6.80;4.50;;;24.10;45.50;;;;;;5085130;28;20184;-71
2023/07/16 07:36:44;;;;;;;5.47;4.20;;;23.90;45.00;;;;;;5103062;28;20854;-74
2023/07/16 07:39:10;;;;;;;7.40;4.67;;;23.60;45.20;;;;;;5084628;28;20406;-73
2023/07/16 07:41:35;;;;;;;8.83;4.93;;;23.30;45.50;;;;;;5084431;28;20246;-71
2023/07/16 07:44:01;;;;;;;5.53;4.43;;;23.00;45.70;;;;;;5083034;28;20412;-71
2023/07/16 07:46:27;;;;;;;5.73;4.20;;;22.60;46.30;;;;;;5063846;28;20184;-72
2023/07/16 07:48:53;;;;;;;6.27;4.63;;;22.40;46.70;;;;;;5085138;28;20168;-70
2023/07/16 07:51:19;;;;;;;8.17;4.30;;;22.20;47.30;;;;;;5103123;28;20468;-72
2023/07/16 07:53:45;;;;;;;7.67;4.57;;;22.20;47.50;;;;;;5102100;28;20462;-74
2023/07/16 07:56:10;;;;;;;6.07;3.93;;;22.20;47.50;;;;;;5102559;28;20418;-71
2023/07/16 07:58:36;;;;;;;7.30;3.77;;;22.20;46.90;;;;;;5084785;28;20176;-73
2023/07/16 08:01:06;;;;;;;6.50;3.83;;;22.10;46.80;;;;;;5102595;28;20216;-71
2023/07/16 08:03:32;;;;;;;6.00;4.17;;;22.20;46.70;;;;;;5101048;28;20211;-73
2023/07/16 08:05:57;;;;;;;5.93;4.53;;;22.10;47.10;;;;;;5101849;28;20403;-74
2023/07/16 08:08:23;;;;;;;7.90;4.30;;;22.10;47.40;;;;;;5102893;28;20433;-71
2023/07/16 08:10:49;;;;;;;6.13;5.40;;;22.20;47.60;;;;;;5075758;28;20582;-74
2023/07/16 08:13:14;;;;;;;5.43;4.90;;;22.20;47.70;;;;;;5082240;28;20169;-72
2023/07/16 08:15:40;;;;;;;9.50;5.13;;;22.30;47.20;;;;;;5101448;28;20230;-69
2023/07/16 08:18:05;;;;;;;7.33;4.73;;;22.30;46.90;;;;;;5100126;28;20455;-72
2023/07/16 08:20:31;;;;;;;12.03;4.50;;;22.40;46.70;;;;;;5102755;28;20260;-74
2023/07/16 08:22:57;;;;;;;7.27;4.50;;;22.30;46.50;;;;;;5088594;28;20180;-72
2023/07/16 08:25:22;;;;;;;7.50;4.57;;;22.40;45.80;;;;;;5051780;28;20220;-73
2023/07/16 08:27:48;;;;;;;6.13;4.57;;;22.40;45.60;;;;;;5010794;28;20204;-71
2023/07/16 08:30:14;;;;;;;5.87;4.33;;;22.40;45.40;;;;;;5045185;28;20228;-72
2023/07/16 08:32:39;;;;;;;6.97;4.30;;;22.50;45.60;;;;;;5060071;28;20241;-74
2023/07/16 08:35:05;;;;;;;5.70;5.10;;;22.50;45.40;;;;;;5101712;28;20405;-73
2023/07/16 08:37:31;;;;;;;8.10;5.37;;;22.50;45.40;;;;;;5083494;28;20192;-70
2023/07/16 08:39:57;;;;;;;5.73;4.53;;;22.50;45.40;;;;;;5092148;28;20473;-72
2023/07/16 08:42:24;;;;;;;7.53;4.30;;;22.60;45.60;;;;;;5066476;28;20182;-73
2023/07/16 08:44:50;;;;;;;7.10;4.57;;;22.70;45.50;;;;;;5065742;28;20188;-73
2023/07/16 08:47:16;;;;;;;6.03;4.87;;;22.80;45.30;;;;;;5104709;28;20426;-72
2023/07/16 08:50:10;;;;;;;6.33;4.20;;;22.90;45.00;;;;;;5104794;28;20627;-72
2023/07/16 08:52:37;;;;;;;6.33;4.70;;;23.00;44.80;;;;;;5054163;28;20761;-73
2023/07/16 08:55:03;;;;;;;6.93;3.60;;;23.10;44.20;;;;;;5097294;28;20423;-72
2023/07/16 08:57:29;;;;;;;3.93;3.63;;;23.20;44.40;;;;;;5072836;28;20410;-71
2023/07/16 08:59:56;;;;;;;4.80;4.07;;;23.30;44.80;;;;;;5085650;28;20568;-72
2023/07/16 09:02:23;;;;;;;9.70;4.30;;;23.30;43.50;;;;;;5086675;28;20526;-72
2023/07/16 09:04:50;;;;;;;4.10;3.70;;;23.40;43.70;;;;;;5104068;28;20436;-71
2023/07/16 09:07:16;;;;;;;5.10;3.80;;;23.50;43.80;;;;;;5104756;28;20414;-73
2023/07/16 09:09:42;;;;;;;5.53;3.67;;;23.60;43.80;;;;;;5099367;28;20465;-72
2023/07/16 09:12:14;;;;;;;5.30;4.23;;;23.70;43.60;;;;;;5089110;28;20241;-73
2023/07/16 09:14:43;;;;;;;4.20;3.80;;;23.80;43.40;;;;;;5105495;28;20290;-74
2023/07/16 09:17:09;;;;;;;9.40;4.30;;;23.90;43.20;;;;;;5085971;28;20501;-72
2023/07/16 09:19:36;;;;;;;8.43;3.67;;;23.70;42.70;;;;;;5102992;28;20478;-73
2023/07/16 09:22:01;;;;;;;5.37;3.70;;;23.60;43.50;;;;;;5085238;28;20655;-72
2023/07/16 09:24:28;;;;;;;4.40;4.00;;;23.60;43.60;;;;;;5081932;28;20422;-72
2023/07/16 09:26:55;;;;;;;4.73;3.23;;;23.70;43.90;;;;;;5050802;28;20219;-72
2023/07/16 09:29:21;;;;;;;4.40;2.77;;;23.80;43.80;;;;;;5086713;28;20434;-72
2023/07/16 09:31:54;;;;;;;5.53;3.17;;;24.00;43.70;;;;;;5085754;28;20965;-74
2023/07/16 09:34:20;;;;;;;10.13;3.70;;;24.10;43.50;;;;;;5069876;28;20180;-73
2023/07/16 09:36:48;;;;;;;4.80;3.63;;;24.30;43.10;;;;;;5104190;28;20409;-73
2023/07/16 09:39:17;;;;;;;4.27;3.20;;;24.40;42.90;;;;;;5085889;28;20599;-72
2023/07/16 09:41:43;;;;;;;5.33;3.70;;;24.60;42.90;;;;;;5082417;28;20422;-71
2023/07/16 09:44:09;;;;;;;3.87;3.20;;;24.60;42.90;;;;;;5070327;28;20414;-71
2023/07/16 09:46:35;;;;;;;4.40;3.50;;;24.80;42.70;;;;;;5102829;28;20394;-74
2023/07/16 09:49:00;;;;;;;5.87;3.33;;;24.90;42.40;;;;;;5101663;28;20501;-72
2023/07/16 09:51:30;;;;;;;6.13;3.53;;;25.10;42.40;;;;;;5102583;28;20208;-72
2023/07/16 09:53:57;;;;;;;5.97;3.07;;;25.30;42.30;;;;;;5102492;28;20173;-72
2023/07/16 09:56:29;;;;;;;6.80;3.63;;;25.50;41.80;;;;;;5091392;28;20509;-72
2023/07/16 09:58:55;;;;;;;3.07;2.57;;;25.60;41.20;;;;;;5106169;28;20419;-73
2023/07/16 10:01:22;;;;;;;6.90;3.43;;;25.60;41.10;;;;;;5104954;28;20482;-75
2023/07/16 10:03:51;;;;;;;4.30;3.37;;;25.70;40.90;;;;;;5102983;28;20430;-71
2023/07/16 10:06:17;;;;;;;3.90;3.50;;;25.70;40.50;;;;;;5105448;28;20406;-74
2023/07/16 10:08:50;;;;;;;4.40;3.37;;;25.80;40.80;;;;;;5106216;28;20399;-72
2023/07/16 10:11:17;;;;;;;4.33;2.73;;;25.80;40.60;;;;;;5048853;28;20214;-72
2023/07/16 10:13:48;;;;;;;5.97;3.27;;;25.90;41.00;;;;;;5101579;28;20407;-71
2023/07/16 10:16:27;;;;;;;3.77;2.37;;;26.20;40.70;;;;;;5104270;28;20409;-71
2023/07/16 10:18:53;;;;;;;7.43;2.83;;;26.50;40.00;;;;;;5104195;28;20413;-70
2023/07/16 10:21:27;;;;;;;6.23;3.83;;;26.60;39.10;;;;;;5106480;28;20442;-73
2023/07/16 10:24:02;;;;;;;7.00;3.30;;;26.60;39.20;;;;;;5086837;28;20192;-73
2023/07/16 10:26:29;;;;;;;5.20;3.60;;;26.60;38.80;;;;;;5074547;28;20447;-74
2023/07/16 10:28:55;;;;;;;4.80;2.87;;;26.70;38.80;;;;;;5071804;28;20826;-74
2023/07/16 10:31:25;;;;;;;6.57;3.07;;;26.80;39.10;;;;;;5072292;28;20454;-72
2023/07/16 10:34:07;;;;;;;4.30;3.17;;;26.80;38.60;;;;;;5104471;28;20732;-72
2023/07/16 10:36:38;;;;;;;3.93;3.17;;;27.10;38.80;;;;;;5089038;28;20410;-70
2023/07/16 10:39:04;;;;;;;4.50;3.60;;;27.20;38.20;;;;;;5087746;28;20478;-72
2023/07/16 10:41:34;;;;;;;6.60;3.30;;;27.20;37.80;;;;;;5048842;28;20440;-74
2023/07/16 10:44:00;;;;;;;3.90;2.90;;;27.40;37.20;;;;;;5068361;28;20857;-74
2023/07/16 10:46:27;;;;;;;5.93;3.27;;;27.60;37.20;;;;;;5085794;28;20373;-73
2023/07/16 10:48:52;;;;;;;7.80;4.10;;;27.70;36.70;;;;;;5069853;28;20417;-75
2023/07/16 10:51:24;;;;;;;5.40;3.20;;;27.60;36.50;;;;;;5103083;28;20486;-74
2023/07/16 10:53:50;;;;;;;3.90;2.73;;;27.40;36.70;;;;;;5105975;28;20192;-74
2023/07/16 10:56:16;;;;;;;3.70;2.60;;;27.30;36.60;;;;;;5051600;28;20417;-74
2023/07/16 10:58:44;;;;;;;5.20;3.20;;;27.00;37.10;;;;;;5065541;28;20220;-73
2023/07/16 11:01:10;;;;;;;4.30;2.53;;;27.10;37.20;;;;;;5029346;28;20881;-74
2023/07/16 11:03:36;;;;;;;3.70;2.93;;;27.00;37.20;;;;;;5046271;28;20174;-73
2023/07/16 11:06:11;;;;;;;5.20;3.43;;;27.20;37.10;;;;;;5064717;28;20205;-73
2023/07/16 11:08:37;;;;;;;4.73;3.63;;;27.40;36.50;;;;;;5091228;28;20313;-78
2023/07/16 11:11:03;;;;;;;4.03;3.30;;;27.20;36.80;;;;;;5067333;28;20434;-74
2023/07/16 11:13:31;;;;;;;5.20;3.10;;;27.20;37.10;;;;;;5087022;28;20627;-73
2023/07/16 11:15:57;;;;;;;3.93;3.30;;;27.30;37.00;;;;;;5085882;28;20450;-73
2023/07/16 11:18:24;;;;;;;3.50;3.20;;;27.20;36.90;;;;;;5103906;28;20434;-73
2023/07/16 11:20:53;;;;;;;5.27;3.63;;;27.20;37.20;;;;;;5085794;28;20200;-72
2023/07/16 11:23:19;;;;;;;4.13;3.23;;;27.40;37.40;;;;;;5070057;28;20407;-73
2023/07/16 11:25:48;;;;;;;6.30;3.70;;;27.60;37.10;;;;;;5087872;28;20417;-74
2023/07/16 11:28:15;;;;;;;4.90;3.50;;;27.70;36.50;;;;;;5089162;28;20188;-72
2023/07/16 11:30:41;;;;;;;8.47;3.10;;;27.60;36.60;;;;;;5087426;28;20458;-73
2023/07/16 11:33:14;;;;;;;5.73;3.27;;;27.60;36.20;;;;;;5106237;28;20454;-72
2023/07/16 11:35:40;;;;;;;5.57;2.67;;;27.50;36.10;;;;;;5106106;28;20481;-74
2023/07/16 11:38:06;;;;;;;4.70;3.37;;;27.50;36.50;;;;;;5087481;28;20380;-72
2023/07/16 11:40:35;;;;;;;3.30;3.00;;;27.50;35.80;;;;;;5064702;28;20452;-75
2023/07/16 11:43:11;;;;;;;6.73;3.23;;;27.60;36.10;;;;;;5092292;28;20430;-73
2023/07/16 11:45:37;;;;;;;4.13;3.20;;;27.60;36.10;;;;;;5086796;28;20414;-70
2023/07/16 11:48:03;;;;;;;4.20;2.73;;;27.60;36.10;;;;;;5086528;28;20427;-73
2023/07/16 11:50:30;;;;;;;6.43;3.13;;;27.70;36.10;;;;;;5087093;28;20450;-73
2023/07/16 11:52:59;;;;;;;5.33;3.07;;;27.70;35.60;;;;;;5105994;28;20488;-74
2023/07/16 11:55:25;;;;;;;4.57;3.03;;;27.50;35.80;;;;;;5104615;28;20417;-73
2023/07/16 11:57:50;;;;;;;4.50;4.00;;;27.50;36.00;;;;;;5106421;28;20402;-75
2023/07/16 12:00:17;;;;;;;4.47;2.70;;;27.40;36.20;;;;;;5086784;28;20205;-76
2023/07/16 12:02:50;;;;;;;4.17;3.50;;;27.40;36.30;;;;;;5088347;28;20310;-75
2023/07/16 12:05:19;;;;;;;3.07;2.70;;;27.50;36.10;;;;;;5085506;28;20454;-77
2023/07/16 12:07:45;;;;;;;5.43;3.37;;;27.60;36.10;;;;;;5068021;28;20453;-72
2023/07/16 12:10:11;;;;;;;4.10;3.20;;;27.70;35.80;;;;;;5068761;28;20739;-74
2023/07/16 12:12:37;;;;;;;5.03;3.10;;;27.80;35.60;;;;;;5086307;28;20231;-76
2023/07/16 12:15:04;;;;;;;4.83;3.80;;;27.60;35.60;;;;;;5087126;28;20184;-72
2023/07/16 12:17:30;;;;;;;5.20;2.93;;;27.70;35.70;;;;;;5091374;28;20418;-73
2023/07/16 12:19:55;;;;;;;4.33;3.67;;;27.70;35.70;;;;;;5090623;28;20856;-72
2023/07/16 12:22:22;;;;;;;5.53;3.10;;;27.60;35.60;;;;;;5076469;28;20257;-74
2023/07/16 12:24:48;;;;;;;7.40;3.50;;;27.40;35.60;;;;;;5089350;28;20485;-74
2023/07/16 12:27:15;;;;;;;5.50;3.23;;;27.40;35.70;;;;;;5072916;28;20431;-75
2023/07/16 12:29:41;;;;;;;3.90;3.07;;;27.50;35.80;;;;;;5099008;28;20461;-73
2023/07/16 12:32:08;;;;;;;3.50;3.00;;;27.60;35.80;;;;;;5111093;28;20545;-74
2023/07/16 12:34:34;;;;;;;5.20;3.40;;;27.60;35.90;;;;;;5107402;28;20713;-72
2023/07/16 12:36:59;;;;;;;5.43;3.00;;;27.60;35.80;;;;;;5088756;28;20410;-71
2023/07/16 12:39:25;;;;;;;4.60;3.43;;;27.70;35.50;;;;;;5103118;28;20242;-73
2023/07/16 12:41:50;;;;;;;5.03;3.40;;;27.70;35.60;;;;;;5100068;28;20188;-75
2023/07/16 12:44:16;;;;;;;6.43;3.27;;;27.80;35.60;;;;;;5105902;28;20194;-72